sensor_id;sensor_type;location;lat;lon;timestamp;P1;durP1;ratioP1;P2;durP2;ratioP2
19193;SDS011;9729;52.296;13.260;2023-04-08T00:00:29;21.13;;;13.07;;
19193;SDS011;9729;52.296;13.260;2023-04-08T00:02:55;29.30;;;14.37;;
19193;SDS011;9729;52.296;13.260;2023-04-08T00:05:22;20.10;;;13.30;;
19193;SDS011;9729;52.296;13.260;2023-04-08T00:07:48;22.13;;;13.40;;
19193;SDS011;9729;52.296;13.260;2023-04-08T00:10:14;22.97;;;13.47;;
19193;SDS011;9729;52.296;13.260;2023-04-08T00:12:41;22.30;;;13.30;;
19193;SDS011;9729;52.296;13.260;2023-04-08T00:15:09;26.20;;;14.03;;
19193;SDS011;9729;52.296;13.260;2023-04-08T00:17:35;22.07;;;14.13;;
19193;SDS011;9729;52.296;13.260;2023-04-08T00:20:02;23.83;;;14.10;;
19193;SDS011;9729;52.296;13.260;2023-04-08T00:22:28;23.13;;;13.83;;
19193;SDS011;9729;52.296;13.260;2023-04-08T00:24:55;23.60;;;14.27;;
19193;SDS011;9729;52.296;13.260;2023-04-08T00:27:22;27.93;;;14.47;;
19193;SDS011;9729;52.296;13.260;2023-04-08T00:29:49;24.50;;;13.80;;
19193;SDS011;9729;52.296;13.260;2023-04-08T00:32:17;22.53;;;14.20;;
19193;SDS011;9729;52.296;13.260;2023-04-08T00:34:43;22.33;;;12.80;;
19193;SDS011;9729;52.296;13.260;2023-04-08T00:37:10;25.27;;;14.77;;
19193;SDS011;9729;52.296;13.260;2023-04-08T00:39:36;25.77;;;13.27;;
19193;SDS011;9729;52.296;13.260;2023-04-08T00:42:02;25.20;;;15.00;;
19193;SDS011;9729;52.296;13.260;2023-04-08T00:44:29;25.10;;;14.67;;
19193;SDS011;9729;52.296;13.260;2023-04-08T00:46:55;23.97;;;14.30;;
19193;SDS011;9729;52.296;13.260;2023-04-08T00:49:23;24.33;;;14.10;;
19193;SDS011;9729;52.296;13.260;2023-04-08T00:51:49;27.47;;;16.13;;
19193;SDS011;9729;52.296;13.260;2023-04-08T00:54:16;22.87;;;14.57;;
19193;SDS011;9729;52.296;13.260;2023-04-08T00:56:42;20.90;;;13.23;;
19193;SDS011;9729;52.296;13.260;2023-04-08T00:59:09;29.63;;;15.97;;
19193;SDS011;9729;52.296;13.260;2023-04-08T01:01:38;25.13;;;14.80;;
19193;SDS011;9729;52.296;13.260;2023-04-08T01:04:09;30.43;;;17.53;;
19193;SDS011;9729;52.296;13.260;2023-04-08T01:06:42;33.13;;;18.53;;
19193;SDS011;9729;52.296;13.260;2023-04-08T01:09:12;32.37;;;17.60;;
19193;SDS011;9729;52.296;13.260;2023-04-08T01:11:41;30.80;;;17.03;;
19193;SDS011;9729;52.296;13.260;2023-04-08T01:14:09;32.10;;;18.17;;
19193;SDS011;9729;52.296;13.260;2023-04-08T01:16:37;32.23;;;18.73;;
19193;SDS011;9729;52.296;13.260;2023-04-08T01:19:04;35.77;;;19.50;;
19193;SDS011;9729;52.296;13.260;2023-04-08T01:21:34;37.80;;;21.23;;
19193;SDS011;9729;52.296;13.260;2023-04-08T01:24:05;42.53;;;21.20;;
19193;SDS011;9729;52.296;13.260;2023-04-08T01:26:35;41.63;;;20.60;;
19193;SDS011;9729;52.296;13.260;2023-04-08T01:29:02;34.13;;;20.40;;
19193;SDS011;9729;52.296;13.260;2023-04-08T01:31:29;43.17;;;22.83;;
19193;SDS011;9729;52.296;13.260;2023-04-08T01:33:56;44.07;;;22.03;;
19193;SDS011;9729;52.296;13.260;2023-04-08T01:36:25;38.50;;;22.23;;
19193;SDS011;9729;52.296;13.260;2023-04-08T01:38:51;45.10;;;21.27;;
19193;SDS011;9729;52.296;13.260;2023-04-08T01:41:18;38.00;;;22.30;;
19193;SDS011;9729;52.296;13.260;2023-04-08T01:43:46;44.33;;;25.17;;
19193;SDS011;9729;52.296;13.260;2023-04-08T01:46:13;45.43;;;24.90;;
19193;SDS011;9729;52.296;13.260;2023-04-08T01:48:40;48.87;;;25.77;;
19193;SDS011;9729;52.296;13.260;2023-04-08T01:51:06;51.30;;;25.83;;
19193;SDS011;9729;52.296;13.260;2023-04-08T01:53:34;52.17;;;26.83;;
19193;SDS011;9729;52.296;13.260;2023-04-08T01:56:02;54.73;;;27.47;;
19193;SDS011;9729;52.296;13.260;2023-04-08T01:58:31;52.93;;;28.33;;
19193;SDS011;9729;52.296;13.260;2023-04-08T02:01:04;55.37;;;27.60;;
19193;SDS011;9729;52.296;13.260;2023-04-08T02:03:31;70.27;;;31.33;;
19193;SDS011;9729;52.296;13.260;2023-04-08T02:05:59;65.97;;;32.27;;
19193;SDS011;9729;52.296;13.260;2023-04-08T02:08:25;57.63;;;29.37;;
19193;SDS011;9729;52.296;13.260;2023-04-08T02:10:51;64.63;;;30.27;;
19193;SDS011;9729;52.296;13.260;2023-04-08T02:13:18;73.13;;;29.90;;
19193;SDS011;9729;52.296;13.260;2023-04-08T02:15:45;62.97;;;30.40;;
19193;SDS011;9729;52.296;13.260;2023-04-08T02:18:21;70.50;;;31.10;;
19193;SDS011;9729;52.296;13.260;2023-04-08T02:20:51;76.17;;;33.43;;
19193;SDS011;9729;52.296;13.260;2023-04-08T02:23:21;67.60;;;29.77;;
19193;SDS011;9729;52.296;13.260;2023-04-08T02:25:49;70.93;;;30.27;;
19193;SDS011;9729;52.296;13.260;2023-04-08T02:28:18;78.93;;;32.30;;
19193;SDS011;9729;52.296;13.260;2023-04-08T02:30:46;68.43;;;31.40;;
19193;SDS011;9729;52.296;13.260;2023-04-08T02:33:14;70.17;;;30.93;;
19193;SDS011;9729;52.296;13.260;2023-04-08T02:35:45;70.20;;;31.50;;
19193;SDS011;9729;52.296;13.260;2023-04-08T02:38:13;72.10;;;30.57;;
19193;SDS011;9729;52.296;13.260;2023-04-08T02:40:40;75.70;;;32.03;;
19193;SDS011;9729;52.296;13.260;2023-04-08T02:43:07;64.73;;;30.73;;
19193;SDS011;9729;52.296;13.260;2023-04-08T02:45:34;74.43;;;30.53;;
19193;SDS011;9729;52.296;13.260;2023-04-08T02:48:03;89.27;;;32.70;;
19193;SDS011;9729;52.296;13.260;2023-04-08T02:50:30;75.03;;;31.90;;
19193;SDS011;9729;52.296;13.260;2023-04-08T02:52:58;79.27;;;32.07;;
19193;SDS011;9729;52.296;13.260;2023-04-08T02:55:25;79.00;;;33.17;;
19193;SDS011;9729;52.296;13.260;2023-04-08T02:57:51;77.63;;;31.57;;
19193;SDS011;9729;52.296;13.260;2023-04-08T03:00:17;80.60;;;33.37;;
19193;SDS011;9729;52.296;13.260;2023-04-08T03:02:44;73.27;;;32.07;;
19193;SDS011;9729;52.296;13.260;2023-04-08T03:05:10;83.23;;;31.90;;
19193;SDS011;9729;52.296;13.260;2023-04-08T03:07:36;84.40;;;33.43;;
19193;SDS011;9729;52.296;13.260;2023-04-08T03:10:05;84.30;;;33.53;;
19193;SDS011;9729;52.296;13.260;2023-04-08T03:12:32;97.53;;;34.47;;
19193;SDS011;9729;52.296;13.260;2023-04-08T03:14:59;94.07;;;33.63;;
19193;SDS011;9729;52.296;13.260;2023-04-08T03:17:27;89.60;;;35.40;;
19193;SDS011;9729;52.296;13.260;2023-04-08T03:19:53;79.97;;;31.77;;
19193;SDS011;9729;52.296;13.260;2023-04-08T03:22:20;92.83;;;36.50;;
19193;SDS011;9729;52.296;13.260;2023-04-08T03:24:48;93.97;;;35.13;;
19193;SDS011;9729;52.296;13.260;2023-04-08T03:27:15;87.50;;;34.33;;
19193;SDS011;9729;52.296;13.260;2023-04-08T03:29:42;95.90;;;36.57;;
19193;SDS011;9729;52.296;13.260;2023-04-08T03:32:09;85.37;;;34.77;;
19193;SDS011;9729;52.296;13.260;2023-04-08T03:34:36;89.20;;;35.40;;
19193;SDS011;9729;52.296;13.260;2023-04-08T03:37:02;94.30;;;36.27;;
19193;SDS011;9729;52.296;13.260;2023-04-08T03:39:28;97.30;;;35.73;;
19193;SDS011;9729;52.296;13.260;2023-04-08T03:41:55;82.67;;;35.50;;
19193;SDS011;9729;52.296;13.260;2023-04-08T03:44:25;86.27;;;36.83;;
19193;SDS011;9729;52.296;13.260;2023-04-08T03:46:51;100.67;;;37.47;;
19193;SDS011;9729;52.296;13.260;2023-04-08T03:49:17;106.90;;;36.20;;
19193;SDS011;9729;52.296;13.260;2023-04-08T03:51:44;98.83;;;36.47;;
19193;SDS011;9729;52.296;13.260;2023-04-08T03:54:10;103.37;;;38.33;;
19193;SDS011;9729;52.296;13.260;2023-04-08T03:56:36;96.30;;;35.23;;
19193;SDS011;9729;52.296;13.260;2023-04-08T03:59:03;93.63;;;37.90;;
19193;SDS011;9729;52.296;13.260;2023-04-08T04:01:31;101.93;;;36.90;;
19193;SDS011;9729;52.296;13.260;2023-04-08T04:03:57;97.43;;;36.33;;
19193;SDS011;9729;52.296;13.260;2023-04-08T04:06:23;92.03;;;37.73;;
19193;SDS011;9729;52.296;13.260;2023-04-08T04:08:51;94.70;;;39.40;;
19193;SDS011;9729;52.296;13.260;2023-04-08T04:11:18;105.97;;;38.83;;
19193;SDS011;9729;52.296;13.260;2023-04-08T04:13:45;102.53;;;39.93;;
19193;SDS011;9729;52.296;13.260;2023-04-08T04:16:11;100.13;;;37.80;;
19193;SDS011;9729;52.296;13.260;2023-04-08T04:18:39;116.50;;;41.17;;
19193;SDS011;9729;52.296;13.260;2023-04-08T04:21:05;99.53;;;37.90;;
19193;SDS011;9729;52.296;13.260;2023-04-08T04:23:32;103.87;;;40.23;;
19193;SDS011;9729;52.296;13.260;2023-04-08T04:25:58;114.80;;;40.30;;
19193;SDS011;9729;52.296;13.260;2023-04-08T04:28:24;112.70;;;40.40;;
19193;SDS011;9729;52.296;13.260;2023-04-08T04:30:51;107.40;;;39.80;;
19193;SDS011;9729;52.296;13.260;2023-04-08T04:33:17;110.10;;;40.40;;
19193;SDS011;9729;52.296;13.260;2023-04-08T04:35:45;114.83;;;38.50;;
19193;SDS011;9729;52.296;13.260;2023-04-08T04:38:12;98.83;;;38.17;;
19193;SDS011;9729;52.296;13.260;2023-04-08T04:40:38;106.80;;;35.43;;
19193;SDS011;9729;52.296;13.260;2023-04-08T04:43:04;107.83;;;39.10;;
19193;SDS011;9729;52.296;13.260;2023-04-08T04:45:31;101.73;;;36.60;;
19193;SDS011;9729;52.296;13.260;2023-04-08T04:47:57;98.43;;;38.10;;
19193;SDS011;9729;52.296;13.260;2023-04-08T04:50:24;99.87;;;38.20;;
19193;SDS011;9729;52.296;13.260;2023-04-08T04:52:51;116.73;;;39.93;;
19193;SDS011;9729;52.296;13.260;2023-04-08T04:55:18;110.10;;;39.33;;
19193;SDS011;9729;52.296;13.260;2023-04-08T04:57:46;117.57;;;42.03;;
19193;SDS011;9729;52.296;13.260;2023-04-08T05:00:13;104.00;;;39.70;;
19193;SDS011;9729;52.296;13.260;2023-04-08T05:02:39;119.20;;;41.47;;
19193;SDS011;9729;52.296;13.260;2023-04-08T05:05:06;109.43;;;39.57;;
19193;SDS011;9729;52.296;13.260;2023-04-08T05:07:34;96.73;;;38.43;;
19193;SDS011;9729;52.296;13.260;2023-04-08T05:10:02;97.53;;;37.33;;
19193;SDS011;9729;52.296;13.260;2023-04-08T05:12:29;100.93;;;36.83;;
19193;SDS011;9729;52.296;13.260;2023-04-08T05:14:56;94.30;;;36.93;;
19193;SDS011;9729;52.296;13.260;2023-04-08T05:17:23;114.60;;;40.83;;
19193;SDS011;9729;52.296;13.260;2023-04-08T05:19:49;106.27;;;38.40;;
19193;SDS011;9729;52.296;13.260;2023-04-08T05:22:16;118.57;;;42.63;;
19193;SDS011;9729;52.296;13.260;2023-04-08T05:24:42;128.30;;;43.33;;
19193;SDS011;9729;52.296;13.260;2023-04-08T05:27:10;125.93;;;42.57;;
19193;SDS011;9729;52.296;13.260;2023-04-08T05:29:36;113.17;;;42.10;;
19193;SDS011;9729;52.296;13.260;2023-04-08T05:32:02;123.83;;;41.73;;
19193;SDS011;9729;52.296;13.260;2023-04-08T05:34:30;119.90;;;45.93;;
19193;SDS011;9729;52.296;13.260;2023-04-08T05:36:56;113.47;;;40.67;;
19193;SDS011;9729;52.296;13.260;2023-04-08T05:39:22;116.27;;;41.70;;
19193;SDS011;9729;52.296;13.260;2023-04-08T05:41:49;126.63;;;45.63;;
19193;SDS011;9729;52.296;13.260;2023-04-08T05:44:16;119.33;;;43.67;;
19193;SDS011;9729;52.296;13.260;2023-04-08T05:46:43;114.17;;;41.93;;
19193;SDS011;9729;52.296;13.260;2023-04-08T05:49:09;116.93;;;41.73;;
19193;SDS011;9729;52.296;13.260;2023-04-08T05:51:36;141.87;;;46.17;;
19193;SDS011;9729;52.296;13.260;2023-04-08T05:54:02;115.37;;;43.10;;
19193;SDS011;9729;52.296;13.260;2023-04-08T05:56:29;108.50;;;37.63;;
19193;SDS011;9729;52.296;13.260;2023-04-08T05:58:56;99.83;;;38.83;;
19193;SDS011;9729;52.296;13.260;2023-04-08T06:01:24;116.43;;;47.17;;
19193;SDS011;9729;52.296;13.260;2023-04-08T06:03:50;113.57;;;42.93;;
19193;SDS011;9729;52.296;13.260;2023-04-08T06:06:17;122.27;;;44.40;;
19193;SDS011;9729;52.296;13.260;2023-04-08T06:08:43;113.33;;;40.33;;
19193;SDS011;9729;52.296;13.260;2023-04-08T06:11:11;110.27;;;42.00;;
19193;SDS011;9729;52.296;13.260;2023-04-08T06:13:37;116.90;;;43.33;;
19193;SDS011;9729;52.296;13.260;2023-04-08T06:16:10;123.90;;;45.47;;
19193;SDS011;9729;52.296;13.260;2023-04-08T06:18:38;99.53;;;38.57;;
19193;SDS011;9729;52.296;13.260;2023-04-08T06:21:05;124.63;;;43.70;;
19193;SDS011;9729;52.296;13.260;2023-04-08T06:23:31;104.50;;;39.00;;
19193;SDS011;9729;52.296;13.260;2023-04-08T06:25:58;105.73;;;40.43;;
19193;SDS011;9729;52.296;13.260;2023-04-08T06:28:24;113.10;;;41.90;;
19193;SDS011;9729;52.296;13.260;2023-04-08T06:30:50;110.33;;;42.13;;
19193;SDS011;9729;52.296;13.260;2023-04-08T06:33:17;104.90;;;40.83;;
19193;SDS011;9729;52.296;13.260;2023-04-08T06:35:44;99.97;;;38.33;;
19193;SDS011;9729;52.296;13.260;2023-04-08T06:38:11;107.47;;;41.37;;
19193;SDS011;9729;52.296;13.260;2023-04-08T06:40:37;99.93;;;37.13;;
19193;SDS011;9729;52.296;13.260;2023-04-08T06:43:04;101.33;;;40.63;;
19193;SDS011;9729;52.296;13.260;2023-04-08T06:45:31;119.53;;;44.33;;
19193;SDS011;9729;52.296;13.260;2023-04-08T06:47:58;109.37;;;42.40;;
19193;SDS011;9729;52.296;13.260;2023-04-08T06:50:24;114.27;;;46.23;;
19193;SDS011;9729;52.296;13.260;2023-04-08T06:52:52;117.07;;;44.10;;
19193;SDS011;9729;52.296;13.260;2023-04-08T06:55:19;105.17;;;43.50;;
19193;SDS011;9729;52.296;13.260;2023-04-08T06:57:45;95.67;;;39.67;;
19193;SDS011;9729;52.296;13.260;2023-04-08T07:00:12;116.10;;;43.70;;
19193;SDS011;9729;52.296;13.260;2023-04-08T07:02:38;114.97;;;46.63;;
19193;SDS011;9729;52.296;13.260;2023-04-08T07:05:05;107.40;;;41.63;;
19193;SDS011;9729;52.296;13.260;2023-04-08T07:07:32;109.73;;;42.50;;
19193;SDS011;9729;52.296;13.260;2023-04-08T07:09:59;107.17;;;47.77;;
19193;SDS011;9729;52.296;13.260;2023-04-08T07:12:26;109.67;;;44.43;;
19193;SDS011;9729;52.296;13.260;2023-04-08T07:14:52;105.77;;;41.93;;
19193;SDS011;9729;52.296;13.260;2023-04-08T07:17:19;101.20;;;42.17;;
19193;SDS011;9729;52.296;13.260;2023-04-08T07:19:45;99.73;;;42.90;;
19193;SDS011;9729;52.296;13.260;2023-04-08T07:22:12;95.60;;;38.40;;
19193;SDS011;9729;52.296;13.260;2023-04-08T07:24:38;88.80;;;34.70;;
19193;SDS011;9729;52.296;13.260;2023-04-08T07:27:08;89.30;;;40.40;;
19193;SDS011;9729;52.296;13.260;2023-04-08T07:29:34;97.17;;;41.63;;
19193;SDS011;9729;52.296;13.260;2023-04-08T07:32:01;97.83;;;38.67;;
19193;SDS011;9729;52.296;13.260;2023-04-08T07:34:27;95.07;;;39.40;;
19193;SDS011;9729;52.296;13.260;2023-04-08T07:36:53;86.70;;;37.83;;
19193;SDS011;9729;52.296;13.260;2023-04-08T07:39:20;90.37;;;38.97;;
19193;SDS011;9729;52.296;13.260;2023-04-08T07:41:46;82.13;;;37.77;;
19193;SDS011;9729;52.296;13.260;2023-04-08T07:44:14;78.23;;;33.27;;
19193;SDS011;9729;52.296;13.260;2023-04-08T07:46:41;77.47;;;36.10;;
19193;SDS011;9729;52.296;13.260;2023-04-08T07:49:09;74.80;;;37.13;;
19193;SDS011;9729;52.296;13.260;2023-04-08T07:51:36;68.93;;;31.90;;
19193;SDS011;9729;52.296;13.260;2023-04-08T07:54:02;80.77;;;35.33;;
19193;SDS011;9729;52.296;13.260;2023-04-08T07:56:28;77.93;;;33.70;;
19193;SDS011;9729;52.296;13.260;2023-04-08T07:58:55;68.70;;;30.87;;
19193;SDS011;9729;52.296;13.260;2023-04-08T08:01:23;74.03;;;32.00;;
19193;SDS011;9729;52.296;13.260;2023-04-08T08:03:50;68.97;;;32.27;;
19193;SDS011;9729;52.296;13.260;2023-04-08T08:06:17;71.80;;;31.17;;
19193;SDS011;9729;52.296;13.260;2023-04-08T08:08:43;74.23;;;33.63;;
19193;SDS011;9729;52.296;13.260;2023-04-08T08:11:10;64.13;;;29.20;;
19193;SDS011;9729;52.296;13.260;2023-04-08T08:13:36;66.63;;;30.70;;
19193;SDS011;9729;52.296;13.260;2023-04-08T08:16:03;61.07;;;27.53;;
19193;SDS011;9729;52.296;13.260;2023-04-08T08:18:33;59.67;;;30.43;;
19193;SDS011;9729;52.296;13.260;2023-04-08T08:21:00;56.47;;;29.80;;
19193;SDS011;9729;52.296;13.260;2023-04-08T08:23:27;61.97;;;31.17;;
19193;SDS011;9729;52.296;13.260;2023-04-08T08:25:57;57.23;;;29.17;;
19193;SDS011;9729;52.296;13.260;2023-04-08T08:28:24;53.03;;;28.03;;
19193;SDS011;9729;52.296;13.260;2023-04-08T08:30:51;65.53;;;28.87;;
19193;SDS011;9729;52.296;13.260;2023-04-08T08:33:17;56.93;;;27.63;;
19193;SDS011;9729;52.296;13.260;2023-04-08T08:35:45;55.60;;;27.10;;
19193;SDS011;9729;52.296;13.260;2023-04-08T08:38:12;58.27;;;25.97;;
19193;SDS011;9729;52.296;13.260;2023-04-08T08:40:38;59.60;;;28.27;;
19193;SDS011;9729;52.296;13.260;2023-04-08T08:43:05;53.23;;;26.87;;
19193;SDS011;9729;52.296;13.260;2023-04-08T08:45:32;51.83;;;27.63;;
19193;SDS011;9729;52.296;13.260;2023-04-08T08:47:58;52.57;;;26.37;;
19193;SDS011;9729;52.296;13.260;2023-04-08T08:50:25;50.83;;;26.97;;
19193;SDS011;9729;52.296;13.260;2023-04-08T08:52:52;49.97;;;26.60;;
19193;SDS011;9729;52.296;13.260;2023-04-08T08:55:19;54.30;;;25.20;;
19193;SDS011;9729;52.296;13.260;2023-04-08T08:57:48;52.17;;;25.93;;
19193;SDS011;9729;52.296;13.260;2023-04-08T09:00:15;50.40;;;25.10;;
19193;SDS011;9729;52.296;13.260;2023-04-08T09:02:42;51.20;;;26.07;;
19193;SDS011;9729;52.296;13.260;2023-04-08T09:05:09;50.80;;;24.37;;
19193;SDS011;9729;52.296;13.260;2023-04-08T09:07:35;51.83;;;26.83;;
19193;SDS011;9729;52.296;13.260;2023-04-08T09:10:06;48.73;;;25.20;;
19193;SDS011;9729;52.296;13.260;2023-04-08T09:12:33;39.23;;;20.97;;
19193;SDS011;9729;52.296;13.260;2023-04-08T09:15:04;38.57;;;21.63;;
19193;SDS011;9729;52.296;13.260;2023-04-08T09:17:31;45.90;;;24.50;;
19193;SDS011;9729;52.296;13.260;2023-04-08T09:20:02;45.47;;;23.03;;
19193;SDS011;9729;52.296;13.260;2023-04-08T09:22:33;44.73;;;23.33;;
19193;SDS011;9729;52.296;13.260;2023-04-08T09:25:00;40.03;;;23.33;;
19193;SDS011;9729;52.296;13.260;2023-04-08T09:27:34;42.00;;;23.27;;
19193;SDS011;9729;52.296;13.260;2023-04-08T09:30:11;38.13;;;20.97;;
19193;SDS011;9729;52.296;13.260;2023-04-08T09:32:45;39.07;;;21.80;;
19193;SDS011;9729;52.296;13.260;2023-04-08T09:35:12;36.50;;;21.07;;
19193;SDS011;9729;52.296;13.260;2023-04-08T09:37:40;38.30;;;21.87;;
19193;SDS011;9729;52.296;13.260;2023-04-08T09:40:07;44.93;;;21.37;;
19193;SDS011;9729;52.296;13.260;2023-04-08T09:42:36;40.57;;;21.33;;
19193;SDS011;9729;52.296;13.260;2023-04-08T09:45:06;37.93;;;21.60;;
19193;SDS011;9729;52.296;13.260;2023-04-08T09:47:33;35.33;;;20.13;;
19193;SDS011;9729;52.296;13.260;2023-04-08T09:50:07;35.23;;;20.20;;
19193;SDS011;9729;52.296;13.260;2023-04-08T09:52:37;37.47;;;19.97;;
19193;SDS011;9729;52.296;13.260;2023-04-08T09:55:08;38.87;;;23.37;;
19193;SDS011;9729;52.296;13.260;2023-04-08T09:57:40;36.47;;;19.77;;
19193;SDS011;9729;52.296;13.260;2023-04-08T10:00:10;38.97;;;22.03;;
19193;SDS011;9729;52.296;13.260;2023-04-08T10:02:40;39.23;;;20.40;;
19193;SDS011;9729;52.296;13.260;2023-04-08T10:05:11;32.47;;;17.33;;
19193;SDS011;9729;52.296;13.260;2023-04-08T10:07:39;37.17;;;18.77;;
19193;SDS011;9729;52.296;13.260;2023-04-08T10:10:06;32.53;;;18.07;;
19193;SDS011;9729;52.296;13.260;2023-04-08T10:12:36;32.73;;;15.77;;
19193;SDS011;9729;52.296;13.260;2023-04-08T10:15:22;29.57;;;15.97;;
19193;SDS011;9729;52.296;13.260;2023-04-08T10:17:49;32.87;;;16.77;;
19193;SDS011;9729;52.296;13.260;2023-04-08T10:23:10;31.17;;;17.60;;
19193;SDS011;9729;52.296;13.260;2023-04-08T10:25:38;29.97;;;18.47;;
19193;SDS011;9729;52.296;13.260;2023-04-08T10:31:00;27.27;;;15.37;;
19193;SDS011;9729;52.296;13.260;2023-04-08T10:33:30;23.47;;;14.50;;
19193;SDS011;9729;52.296;13.260;2023-04-08T10:35:58;25.53;;;15.20;;
19193;SDS011;9729;52.296;13.260;2023-04-08T10:38:26;27.00;;;15.07;;
19193;SDS011;9729;52.296;13.260;2023-04-08T10:40:53;22.47;;;13.23;;
19193;SDS011;9729;52.296;13.260;2023-04-08T10:43:20;24.57;;;14.47;;
19193;SDS011;9729;52.296;13.260;2023-04-08T10:45:49;20.00;;;13.73;;
19193;SDS011;9729;52.296;13.260;2023-04-08T10:48:19;20.53;;;11.30;;
19193;SDS011;9729;52.296;13.260;2023-04-08T10:50:53;23.10;;;14.00;;
19193;SDS011;9729;52.296;13.260;2023-04-08T10:53:24;19.33;;;11.10;;
19193;SDS011;9729;52.296;13.260;2023-04-08T10:55:51;22.37;;;13.47;;
19193;SDS011;9729;52.296;13.260;2023-04-08T10:58:18;24.47;;;14.17;;
19193;SDS011;9729;52.296;13.260;2023-04-08T11:00:45;21.07;;;14.30;;
19193;SDS011;9729;52.296;13.260;2023-04-08T11:03:12;22.87;;;13.73;;
19193;SDS011;9729;52.296;13.260;2023-04-08T11:05:39;22.50;;;12.47;;
19193;SDS011;9729;52.296;13.260;2023-04-08T11:08:06;20.10;;;12.57;;
19193;SDS011;9729;52.296;13.260;2023-04-08T11:10:35;21.23;;;12.93;;
19193;SDS011;9729;52.296;13.260;2023-04-08T11:13:02;19.17;;;11.70;;
19193;SDS011;9729;52.296;13.260;2023-04-08T11:15:31;18.60;;;11.30;;
19193;SDS011;9729;52.296;13.260;2023-04-08T11:18:00;19.33;;;11.93;;
19193;SDS011;9729;52.296;13.260;2023-04-08T11:20:29;16.70;;;10.90;;
19193;SDS011;9729;52.296;13.260;2023-04-08T11:22:55;16.63;;;10.97;;
19193;SDS011;9729;52.296;13.260;2023-04-08T11:25:22;15.93;;;10.83;;
19193;SDS011;9729;52.296;13.260;2023-04-08T11:27:49;15.93;;;9.87;;
19193;SDS011;9729;52.296;13.260;2023-04-08T11:30:15;16.33;;;10.60;;
19193;SDS011;9729;52.296;13.260;2023-04-08T11:32:42;17.83;;;10.67;;
19193;SDS011;9729;52.296;13.260;2023-04-08T11:35:08;16.10;;;10.83;;
19193;SDS011;9729;52.296;13.260;2023-04-08T11:37:37;18.13;;;12.47;;
19193;SDS011;9729;52.296;13.260;2023-04-08T11:40:08;22.30;;;11.37;;
19193;SDS011;9729;52.296;13.260;2023-04-08T11:42:35;17.67;;;11.60;;
19193;SDS011;9729;52.296;13.260;2023-04-08T11:45:08;15.43;;;11.47;;
19193;SDS011;9729;52.296;13.260;2023-04-08T11:47:36;16.17;;;10.23;;
19193;SDS011;9729;52.296;13.260;2023-04-08T11:50:02;15.30;;;9.63;;
19193;SDS011;9729;52.296;13.260;2023-04-08T11:52:43;18.10;;;11.13;;
19193;SDS011;9729;52.296;13.260;2023-04-08T11:55:11;15.10;;;11.30;;
19193;SDS011;9729;52.296;13.260;2023-04-08T11:57:38;16.13;;;11.07;;
19193;SDS011;9729;52.296;13.260;2023-04-08T12:00:05;16.60;;;10.17;;
19193;SDS011;9729;52.296;13.260;2023-04-08T12:02:33;17.13;;;10.23;;
19193;SDS011;9729;52.296;13.260;2023-04-08T12:05:00;17.20;;;10.47;;
19193;SDS011;9729;52.296;13.260;2023-04-08T12:07:26;17.40;;;11.13;;
19193;SDS011;9729;52.296;13.260;2023-04-08T12:09:54;15.10;;;10.23;;
19193;SDS011;9729;52.296;13.260;2023-04-08T12:12:20;12.90;;;8.47;;
19193;SDS011;9729;52.296;13.260;2023-04-08T12:14:47;13.67;;;9.63;;
19193;SDS011;9729;52.296;13.260;2023-04-08T12:17:13;14.20;;;10.50;;
19193;SDS011;9729;52.296;13.260;2023-04-08T12:19:40;16.10;;;10.50;;
19193;SDS011;9729;52.296;13.260;2023-04-08T12:22:06;16.47;;;9.57;;
19193;SDS011;9729;52.296;13.260;2023-04-08T12:24:33;18.07;;;10.43;;
19193;SDS011;9729;52.296;13.260;2023-04-08T12:27:00;20.47;;;10.30;;
19193;SDS011;9729;52.296;13.260;2023-04-08T12:29:28;14.30;;;10.10;;
19193;SDS011;9729;52.296;13.260;2023-04-08T12:31:55;16.17;;;9.97;;
19193;SDS011;9729;52.296;13.260;2023-04-08T12:34:22;13.83;;;9.70;;
19193;SDS011;9729;52.296;13.260;2023-04-08T12:36:48;16.03;;;11.07;;
19193;SDS011;9729;52.296;13.260;2023-04-08T12:39:15;14.23;;;10.03;;
19193;SDS011;9729;52.296;13.260;2023-04-08T12:41:41;12.77;;;9.60;;
19193;SDS011;9729;52.296;13.260;2023-04-08T12:44:09;12.80;;;9.17;;
19193;SDS011;9729;52.296;13.260;2023-04-08T12:46:35;14.70;;;9.90;;
19193;SDS011;9729;52.296;13.260;2023-04-08T12:49:01;15.00;;;10.43;;
19193;SDS011;9729;52.296;13.260;2023-04-08T12:51:28;14.53;;;8.93;;
19193;SDS011;9729;52.296;13.260;2023-04-08T12:53:55;14.87;;;10.20;;
19193;SDS011;9729;52.296;13.260;2023-04-08T12:56:21;14.63;;;8.90;;
19193;SDS011;9729;52.296;13.260;2023-04-08T12:58:48;15.60;;;10.43;;
19193;SDS011;9729;52.296;13.260;2023-04-08T13:01:16;14.27;;;9.83;;
19193;SDS011;9729;52.296;13.260;2023-04-08T13:03:43;15.37;;;9.87;;
19193;SDS011;9729;52.296;13.260;2023-04-08T13:06:11;14.33;;;10.20;;
19193;SDS011;9729;52.296;13.260;2023-04-08T13:08:38;14.10;;;9.77;;
19193;SDS011;9729;52.296;13.260;2023-04-08T13:11:04;15.57;;;10.60;;
19193;SDS011;9729;52.296;13.260;2023-04-08T13:13:30;12.40;;;7.53;;
19193;SDS011;9729;52.296;13.260;2023-04-08T13:15:57;13.93;;;9.30;;
19193;SDS011;9729;52.296;13.260;2023-04-08T13:18:25;12.93;;;8.77;;
19193;SDS011;9729;52.296;13.260;2023-04-08T13:20:51;12.17;;;7.97;;
19193;SDS011;9729;52.296;13.260;2023-04-08T13:23:18;16.40;;;9.70;;
19193;SDS011;9729;52.296;13.260;2023-04-08T13:25:45;18.43;;;9.80;;
19193;SDS011;9729;52.296;13.260;2023-04-08T13:28:11;15.30;;;10.37;;
19193;SDS011;9729;52.296;13.260;2023-04-08T13:30:38;12.33;;;9.20;;
19193;SDS011;9729;52.296;13.260;2023-04-08T13:33:04;14.40;;;9.47;;
19193;SDS011;9729;52.296;13.260;2023-04-08T13:35:32;16.17;;;11.10;;
19193;SDS011;9729;52.296;13.260;2023-04-08T13:37:58;14.17;;;9.63;;
19193;SDS011;9729;52.296;13.260;2023-04-08T13:40:25;14.43;;;10.30;;
19193;SDS011;9729;52.296;13.260;2023-04-08T13:42:52;17.00;;;10.20;;
19193;SDS011;9729;52.296;13.260;2023-04-08T13:45:18;13.33;;;9.60;;
19193;SDS011;9729;52.296;13.260;2023-04-08T13:47:45;12.40;;;9.20;;
19193;SDS011;9729;52.296;13.260;2023-04-08T13:50:11;11.50;;;8.63;;
19193;SDS011;9729;52.296;13.260;2023-04-08T13:52:39;13.57;;;9.47;;
19193;SDS011;9729;52.296;13.260;2023-04-08T13:55:06;14.27;;;9.43;;
19193;SDS011;9729;52.296;13.260;2023-04-08T13:57:33;15.43;;;9.20;;
19193;SDS011;9729;52.296;13.260;2023-04-08T14:00:00;12.77;;;10.10;;
19193;SDS011;9729;52.296;13.260;2023-04-08T14:02:27;13.83;;;9.33;;
19193;SDS011;9729;52.296;13.260;2023-04-08T14:04:54;13.87;;;9.83;;
19193;SDS011;9729;52.296;13.260;2023-04-08T14:07:20;15.20;;;9.53;;
19193;SDS011;9729;52.296;13.260;2023-04-08T14:09:48;12.70;;;8.77;;
19193;SDS011;9729;52.296;13.260;2023-04-08T14:12:15;12.23;;;8.37;;
19193;SDS011;9729;52.296;13.260;2023-04-08T14:14:41;13.13;;;7.67;;
19193;SDS011;9729;52.296;13.260;2023-04-08T14:17:08;14.63;;;9.10;;
19193;SDS011;9729;52.296;13.260;2023-04-08T14:19:34;13.17;;;9.23;;
19193;SDS011;9729;52.296;13.260;2023-04-08T14:22:01;14.73;;;9.53;;
19193;SDS011;9729;52.296;13.260;2023-04-08T14:24:27;12.97;;;7.63;;
19193;SDS011;9729;52.296;13.260;2023-04-08T14:26:55;15.27;;;9.20;;